sensor_id;sensor_type;location;lat;lon;timestamp;pressure;altitude;pressure_sealevel;temperature;humidity
11987;BME280;6053;51.382;6.768;2023-12-07T00:01:04;101809.66;;;8.48;58.80
11987;BME280;6053;51.382;6.768;2023-12-07T00:03:33;101812.03;;;8.49;58.98
11987;BME280;6053;51.382;6.768;2023-12-07T00:06:05;101817.91;;;8.41;58.90
11987;BME280;6053;51.382;6.768;2023-12-07T00:08:38;101805.34;;;8.43;59.00
11987;BME280;6053;51.382;6.768;2023-12-07T00:11:07;101808.09;;;8.40;59.25
11987;BME280;6053;51.382;6.768;2023-12-07T00:13:35;101811.63;;;8.37;59.12
11987;BME280;6053;51.382;6.768;2023-12-07T00:16:11;101810.47;;;8.41;58.83
11987;BME280;6053;51.382;6.768;2023-12-07T00:18:39;101808.88;;;8.37;59.10
11987;BME280;6053;51.382;6.768;2023-12-07T00:21:08;101817.16;;;8.37;58.98
11987;BME280;6053;51.382;6.768;2023-12-07T00:23:37;101810.06;;;8.43;58.92
11987;BME280;6053;51.382;6.768;2023-12-07T00:26:06;101808.09;;;8.47;58.80
11987;BME280;6053;51.382;6.768;2023-12-07T00:28:34;101790.78;;;8.43;58.93
11987;BME280;6053;51.382;6.768;2023-12-07T00:31:05;101795.53;;;8.42;58.72
11987;BME280;6053;51.382;6.768;2023-12-07T00:33:39;101802.56;;;8.40;58.95
11987;BME280;6053;51.382;6.768;2023-12-07T00:36:09;101794.72;;;8.38;58.82
11987;BME280;6053;51.382;6.768;2023-12-07T00:38:37;101791.19;;;8.35;59.11
11987;BME280;6053;51.382;6.768;2023-12-07T00:41:11;101787.63;;;8.34;59.15
11987;BME280;6053;51.382;6.768;2023-12-07T00:43:42;101789.22;;;8.35;58.97
11987;BME280;6053;51.382;6.768;2023-12-07T00:46:18;101796.31;;;8.36;58.87
11987;BME280;6053;51.382;6.768;2023-12-07T00:48:51;101800.22;;;8.35;58.97
11987;BME280;6053;51.382;6.768;2023-12-07T00:51:19;101793.94;;;8.28;59.45
11987;BME280;6053;51.382;6.768;2023-12-07T00:53:48;101797.06;;;8.30;59.17
11987;BME280;6053;51.382;6.768;2023-12-07T00:56:22;101798.28;;;8.39;58.80
11987;BME280;6053;51.382;6.768;2023-12-07T00:58:50;101793.16;;;8.37;58.78
11987;BME280;6053;51.382;6.768;2023-12-07T01:01:19;101806.53;;;8.36;58.82
11987;BME280;6053;51.382;6.768;2023-12-07T01:03:51;101807.31;;;8.33;59.18
11987;BME280;6053;51.382;6.768;2023-12-07T01:06:20;101804.16;;;8.37;58.79
11987;BME280;6053;51.382;6.768;2023-12-07T01:08:48;101809.28;;;8.36;59.06
11987;BME280;6053;51.382;6.768;2023-12-07T01:11:20;101807.31;;;8.29;59.33
11987;BME280;6053;51.382;6.768;2023-12-07T01:13:57;101801.81;;;8.33;59.15
11987;BME280;6053;51.382;6.768;2023-12-07T01:16:32;101808.88;;;8.23;59.31
11987;BME280;6053;51.382;6.768;2023-12-07T01:19:04;101805.31;;;8.30;59.21
11987;BME280;6053;51.382;6.768;2023-12-07T01:21:34;101812.81;;;8.29;59.10
11987;BME280;6053;51.382;6.768;2023-12-07T01:24:05;101813.59;;;8.30;59.22
11987;BME280;6053;51.382;6.768;2023-12-07T01:26:42;101815.56;;;8.29;59.08
11987;BME280;6053;51.382;6.768;2023-12-07T01:29:19;101807.69;;;8.28;59.21
11987;BME280;6053;51.382;6.768;2023-12-07T01:31:48;101812.81;;;8.26;59.28
11987;BME280;6053;51.382;6.768;2023-12-07T01:34:20;101810.81;;;8.23;59.14
11987;BME280;6053;51.382;6.768;2023-12-07T01:36:49;101815.94;;;8.21;59.37
11987;BME280;6053;51.382;6.768;2023-12-07T01:39:17;101809.66;;;8.24;58.98
11987;BME280;6053;51.382;6.768;2023-12-07T01:41:49;101813.19;;;8.24;59.11
11987;BME280;6053;51.382;6.768;2023-12-07T01:44:21;101808.88;;;8.23;58.91
11987;BME280;6053;51.382;6.768;2023-12-07T01:46:56;101816.31;;;8.19;59.19
11987;BME280;6053;51.382;6.768;2023-12-07T01:49:28;101815.09;;;8.06;59.33
11987;BME280;6053;51.382;6.768;2023-12-07T01:52:00;101828.13;;;8.16;59.14
11987;BME280;6053;51.382;6.768;2023-12-07T01:54:32;101823.38;;;8.17;59.11
11987;BME280;6053;51.382;6.768;2023-12-07T01:57:13;101827.69;;;8.14;59.19
11987;BME280;6053;51.382;6.768;2023-12-07T01:59:45;101833.19;;;8.14;59.30
11987;BME280;6053;51.382;6.768;2023-12-07T02:02:13;101832.81;;;8.16;59.18
11987;BME280;6053;51.382;6.768;2023-12-07T02:04:49;101837.94;;;8.17;58.98
11987;BME280;6053;51.382;6.768;2023-12-07T02:07:18;101838.72;;;8.18;59.04
11987;BME280;6053;51.382;6.768;2023-12-07T02:09:50;101827.69;;;8.14;59.06
11987;BME280;6053;51.382;6.768;2023-12-07T02:12:22;101827.69;;;8.11;59.18
11987;BME280;6053;51.382;6.768;2023-12-07T02:14:52;101832.41;;;8.10;59.02
11987;BME280;6053;51.382;6.768;2023-12-07T02:17:28;101837.88;;;8.07;59.11
11987;BME280;6053;51.382;6.768;2023-12-07T02:20:24;101841.41;;;8.07;59.18
11987;BME280;6053;51.382;6.768;2023-12-07T02:23:04;101844.94;;;8.08;59.26
11987;BME280;6053;51.382;6.768;2023-12-07T02:25:45;101848.91;;;8.10;58.83
11987;BME280;6053;51.382;6.768;2023-12-07T02:28:17;101852.03;;;8.12;58.76
11987;BME280;6053;51.382;6.768;2023-12-07T02:30:46;101848.50;;;8.08;59.10
11987;BME280;6053;51.382;6.768;2023-12-07T02:33:18;101845.34;;;8.10;58.96
11987;BME280;6053;51.382;6.768;2023-12-07T02:35:46;101844.19;;;8.07;58.94
11987;BME280;6053;51.382;6.768;2023-12-07T02:38:16;101853.53;;;7.89;59.32
11987;BME280;6053;51.382;6.768;2023-12-07T02:40:50;101841.41;;;8.00;59.22
11987;BME280;6053;51.382;6.768;2023-12-07T02:43:20;101855.03;;;7.65;59.75
11987;BME280;6053;51.382;6.768;2023-12-07T02:45:49;101854.72;;;7.88;59.69
11987;BME280;6053;51.382;6.768;2023-12-07T02:48:21;101857.75;;;7.58;60.19
11987;BME280;6053;51.382;6.768;2023-12-07T02:50:56;101858.66;;;7.97;59.47
11987;BME280;6053;51.382;6.768;2023-12-07T02:53:28;101851.56;;;7.86;59.62
11987;BME280;6053;51.382;6.768;2023-12-07T02:55:56;101848.78;;;7.79;60.00
11987;BME280;6053;51.382;6.768;2023-12-07T02:58:26;101846.72;;;7.55;60.19
11987;BME280;6053;51.382;6.768;2023-12-07T03:00:58;101846.75;;;7.58;60.79
11987;BME280;6053;51.382;6.768;2023-12-07T03:03:29;101840.22;;;7.16;61.92
11987;BME280;6053;51.382;6.768;2023-12-07T03:05:58;101847.19;;;7.03;62.79
11987;BME280;6053;51.382;6.768;2023-12-07T03:08:35;101835.94;;;7.22;61.58
11987;BME280;6053;51.382;6.768;2023-12-07T03:11:05;101838.50;;;7.62;60.64
11987;BME280;6053;51.382;6.768;2023-12-07T03:13:35;101838.53;;;7.65;60.71
11987;BME280;6053;51.382;6.768;2023-12-07T03:16:08;101832.69;;;7.81;59.78
11987;BME280;6053;51.382;6.768;2023-12-07T03:18:37;101838.31;;;6.70;63.21
11987;BME280;6053;51.382;6.768;2023-12-07T03:21:06;101828.84;;;7.18;62.35
11987;BME280;6053;51.382;6.768;2023-12-07T03:23:37;101833.06;;;7.76;60.18
11987;BME280;6053;51.382;6.768;2023-12-07T03:26:08;101835.03;;;7.79;59.71
11987;BME280;6053;51.382;6.768;2023-12-07T03:28:38;101832.63;;;7.67;60.49
11987;BME280;6053;51.382;6.768;2023-12-07T03:31:06;101832.34;;;7.96;59.46
11987;BME280;6053;51.382;6.768;2023-12-07T03:33:35;101833.16;;;8.00;59.26
11987;BME280;6053;51.382;6.768;2023-12-07T03:36:06;101822.16;;;8.00;59.59
11987;BME280;6053;51.382;6.768;2023-12-07T03:38:37;101830.00;;;8.05;59.13
11987;BME280;6053;51.382;6.768;2023-12-07T03:41:06;101838.66;;;8.00;59.52
11987;BME280;6053;51.382;6.768;2023-12-07T03:43:39;101837.50;;;8.08;59.34
11987;BME280;6053;51.382;6.768;2023-12-07T03:46:10;101838.66;;;8.07;59.29
11987;BME280;6053;51.382;6.768;2023-12-07T03:48:38;101839.44;;;8.04;59.07
11987;BME280;6053;51.382;6.768;2023-12-07T03:51:07;101833.13;;;7.97;59.35
11987;BME280;6053;51.382;6.768;2023-12-07T03:53:38;101840.22;;;8.01;59.60
11987;BME280;6053;51.382;6.768;2023-12-07T03:56:10;101837.06;;;7.99;59.67
11987;BME280;6053;51.382;6.768;2023-12-07T03:58:43;101837.47;;;8.01;59.40
11987;BME280;6053;51.382;6.768;2023-12-07T04:01:28;101841.03;;;8.09;59.18
11987;BME280;6053;51.382;6.768;2023-12-07T04:03:57;101840.22;;;8.01;59.47
11987;BME280;6053;51.382;6.768;2023-12-07T04:06:27;101841.00;;;8.02;59.57
11987;BME280;6053;51.382;6.768;2023-12-07T04:08:56;101842.19;;;8.01;59.37
11987;BME280;6053;51.382;6.768;2023-12-07T04:11:24;101842.56;;;7.99;59.56
11987;BME280;6053;51.382;6.768;2023-12-07T04:13:54;101838.25;;;8.05;59.52
11987;BME280;6053;51.382;6.768;2023-12-07T04:16:22;101833.56;;;8.06;59.33
11987;BME280;6053;51.382;6.768;2023-12-07T04:18:54;101842.97;;;8.01;59.56
11987;BME280;6053;51.382;6.768;2023-12-07T04:21:22;101839.44;;;8.01;59.71
11987;BME280;6053;51.382;6.768;2023-12-07T04:23:51;101842.16;;;7.90;59.74
11987;BME280;6053;51.382;6.768;2023-12-07T04:26:19;101844.94;;;8.04;59.87
11987;BME280;6053;51.382;6.768;2023-12-07T04:28:51;101847.72;;;8.11;59.34
11987;BME280;6053;51.382;6.768;2023-12-07T04:31:20;101850.13;;;8.16;59.29
11987;BME280;6053;51.382;6.768;2023-12-07T04:33:49;101858.72;;;8.11;59.23
11987;BME280;6053;51.382;6.768;2023-12-07T04:36:22;101861.88;;;8.13;59.36
11987;BME280;6053;51.382;6.768;2023-12-07T04:38:51;101857.53;;;8.12;59.48
11987;BME280;6053;51.382;6.768;2023-12-07T04:41:19;101863.09;;;8.16;59.43
11987;BME280;6053;51.382;6.768;2023-12-07T04:43:47;101859.56;;;8.15;59.29
11987;BME280;6053;51.382;6.768;2023-12-07T04:46:20;101857.59;;;8.19;59.10
11987;BME280;6053;51.382;6.768;2023-12-07T04:48:52;101859.97;;;8.21;59.36
11987;BME280;6053;51.382;6.768;2023-12-07T04:51:20;101863.91;;;8.20;59.13
11987;BME280;6053;51.382;6.768;2023-12-07T04:53:51;101856.00;;;8.18;59.27
11987;BME280;6053;51.382;6.768;2023-12-07T04:56:28;101859.16;;;8.20;59.09
11987;BME280;6053;51.382;6.768;2023-12-07T04:58:58;101866.25;;;8.21;59.29
11987;BME280;6053;51.382;6.768;2023-12-07T05:01:27;101864.28;;;8.22;59.39
11987;BME280;6053;51.382;6.768;2023-12-07T05:03:58;101870.19;;;8.20;59.50
11987;BME280;6053;51.382;6.768;2023-12-07T05:06:34;101869.00;;;8.18;59.37
11987;BME280;6053;51.382;6.768;2023-12-07T05:09:05;101871.34;;;8.19;59.72
11987;BME280;6053;51.382;6.768;2023-12-07T05:11:39;101872.16;;;8.20;59.25
11987;BME280;6053;51.382;6.768;2023-12-07T05:14:07;101873.72;;;8.21;59.54
11987;BME280;6053;51.382;6.768;2023-12-07T05:16:37;101870.19;;;8.24;59.52
11987;BME280;6053;51.382;6.768;2023-12-07T05:19:06;101887.47;;;8.17;59.46
11987;BME280;6053;51.382;6.768;2023-12-07T05:21:45;101881.16;;;8.17;59.74
11987;BME280;6053;51.382;6.768;2023-12-07T05:24:17;101881.59;;;8.22;59.52
11987;BME280;6053;51.382;6.768;2023-12-07T05:26:54;101877.66;;;8.20;59.49
11987;BME280;6053;51.382;6.768;2023-12-07T05:29:28;101876.84;;;8.16;59.90
11987;BME280;6053;51.382;6.768;2023-12-07T05:32:01;101881.16;;;8.17;59.83
11987;BME280;6053;51.382;6.768;2023-12-07T05:34:32;101885.44;;;8.11;60.07
11987;BME280;6053;51.382;6.768;2023-12-07T05:37:02;101886.63;;;8.13;59.86
11987;BME280;6053;51.382;6.768;2023-12-07T05:39:31;101887.34;;;7.93;60.33
11987;BME280;6053;51.382;6.768;2023-12-07T05:42:03;101888.59;;;8.09;59.98
11987;BME280;6053;51.382;6.768;2023-12-07T05:44:34;101881.09;;;8.06;60.32
11987;BME280;6053;51.382;6.768;2023-12-07T05:47:16;101875.22;;;8.08;60.20
11987;BME280;6053;51.382;6.768;2023-12-07T05:49:46;101866.16;;;7.97;60.51
11987;BME280;6053;51.382;6.768;2023-12-07T05:52:14;101866.44;;;7.78;61.25
11987;BME280;6053;51.382;6.768;2023-12-07T05:54:46;101863.78;;;7.95;60.77
11987;BME280;6053;51.382;6.768;2023-12-07T05:57:18;101866.09;;;7.79;60.80
11987;BME280;6053;51.382;6.768;2023-12-07T05:59:46;101869.28;;;7.95;60.80
11987;BME280;6053;51.382;6.768;2023-12-07T06:02:16;101857.13;;;8.07;60.39
11987;BME280;6053;51.382;6.768;2023-12-07T06:04:51;101862.56;;;7.89;61.04
11987;BME280;6053;51.382;6.768;2023-12-07T06:07:22;101857.03;;;7.79;61.25
11987;BME280;6053;51.382;6.768;2023-12-07T06:09:53;101862.81;;;7.57;61.87
11987;BME280;6053;51.382;6.768;2023-12-07T06:12:25;101856.72;;;7.94;60.95
11987;BME280;6053;51.382;6.768;2023-12-07T06:14:57;101860.53;;;7.69;61.72
11987;BME280;6053;51.382;6.768;2023-12-07T06:17:27;101848.06;;;7.99;60.62
11987;BME280;6053;51.382;6.768;2023-12-07T06:19:55;101846.16;;;8.10;60.31
11987;BME280;6053;51.382;6.768;2023-12-07T06:22:23;101857.59;;;8.19;60.19
11987;BME280;6053;51.382;6.768;2023-12-07T06:24:52;101852.47;;;8.18;60.40
11987;BME280;6053;51.382;6.768;2023-12-07T06:27:26;101852.88;;;8.20;60.10
11987;BME280;6053;51.382;6.768;2023-12-07T06:29:55;101843.06;;;8.15;60.33
11987;BME280;6053;51.382;6.768;2023-12-07T06:32:23;101844.97;;;8.11;60.20
11987;BME280;6053;51.382;6.768;2023-12-07T06:34:54;101841.47;;;8.18;60.32
11987;BME280;6053;51.382;6.768;2023-12-07T06:37:22;101846.59;;;8.19;60.36
11987;BME280;6053;51.382;6.768;2023-12-07T06:39:51;101843.38;;;8.07;60.45
11987;BME280;6053;51.382;6.768;2023-12-07T06:42:22;101849.31;;;8.16;60.23
11987;BME280;6053;51.382;6.768;2023-12-07T06:44:51;101848.13;;;8.13;60.32
11987;BME280;6053;51.382;6.768;2023-12-07T06:47:22;101843.06;;;8.19;60.31
11987;BME280;6053;51.382;6.768;2023-12-07T06:49:51;101847.75;;;8.18;60.10
11987;BME280;6053;51.382;6.768;2023-12-07T06:52:24;101848.84;;;7.96;60.85
11987;BME280;6053;51.382;6.768;2023-12-07T06:54:54;101852.38;;;7.93;61.14
11987;BME280;6053;51.382;6.768;2023-12-07T06:57:22;101850.44;;;8.04;60.92
11987;BME280;6053;51.382;6.768;2023-12-07T06:59:51;101841.44;;;8.14;60.61
11987;BME280;6053;51.382;6.768;2023-12-07T07:02:19;101847.38;;;8.20;60.15
11987;BME280;6053;51.382;6.768;2023-12-07T07:05:05;101842.25;;;8.22;59.96
11987;BME280;6053;51.382;6.768;2023-12-07T07:07:35;101825.75;;;8.18;60.41
11987;BME280;6053;51.382;6.768;2023-12-07T07:10:10;101841.50;;;8.21;60.37
11987;BME280;6053;51.382;6.768;2023-12-07T07:12:39;101847.75;;;8.18;60.30
11987;BME280;6053;51.382;6.768;2023-12-07T07:15:11;101846.97;;;8.18;60.20
11987;BME280;6053;51.382;6.768;2023-12-07T07:17:42;101838.69;;;8.14;60.42
11987;BME280;6053;51.382;6.768;2023-12-07T07:20:11;101840.66;;;8.10;60.64
11987;BME280;6053;51.382;6.768;2023-12-07T07:22:41;101827.72;;;8.18;60.12
11987;BME280;6053;51.382;6.768;2023-12-07T07:25:13;101833.22;;;8.21;60.33
11987;BME280;6053;51.382;6.768;2023-12-07T07:27:51;101833.16;;;8.04;60.61
11987;BME280;6053;51.382;6.768;2023-12-07T07:30:21;101830.03;;;8.09;60.45
11987;BME280;6053;51.382;6.768;2023-12-07T07:32:50;101821.81;;;8.16;60.11
11987;BME280;6053;51.382;6.768;2023-12-07T07:35:19;101829.72;;;8.21;59.90
11987;BME280;6053;51.382;6.768;2023-12-07T07:37:48;101846.59;;;8.23;60.09
11987;BME280;6053;51.382;6.768;2023-12-07T07:40:17;101848.56;;;8.22;60.18
11987;BME280;6053;51.382;6.768;2023-12-07T07:42:45;101853.25;;;8.18;60.13
11987;BME280;6053;51.382;6.768;2023-12-07T07:45:27;101847.38;;;8.20;60.08
11987;BME280;6053;51.382;6.768;2023-12-07T07:48:12;101848.56;;;8.19;60.12
11987;BME280;6053;51.382;6.768;2023-12-07T07:50:47;101841.50;;;8.25;60.06
11987;BME280;6053;51.382;6.768;2023-12-07T07:53:22;101835.56;;;8.19;60.19
11987;BME280;6053;51.382;6.768;2023-12-07T07:55:54;101831.25;;;8.22;60.16
11987;BME280;6053;51.382;6.768;2023-12-07T07:58:22;101837.97;;;8.21;60.23
11987;BME280;6053;51.382;6.768;2023-12-07T08:00:50;101836.41;;;8.27;60.00
11987;BME280;6053;51.382;6.768;2023-12-07T08:03:19;101839.16;;;8.30;59.61
11987;BME280;6053;51.382;6.768;2023-12-07T08:05:50;101840.31;;;8.29;59.90
11987;BME280;6053;51.382;6.768;2023-12-07T08:08:21;101831.66;;;8.27;59.91
11987;BME280;6053;51.382;6.768;2023-12-07T08:10:50;101836.41;;;8.27;59.70
11987;BME280;6053;51.382;6.768;2023-12-07T08:13:31;101848.16;;;8.20;59.92
11987;BME280;6053;51.382;6.768;2023-12-07T08:16:00;101846.59;;;8.19;59.90
11987;BME280;6053;51.382;6.768;2023-12-07T08:18:34;101852.03;;;8.09;60.52
11987;BME280;6053;51.382;6.768;2023-12-07T08:21:04;101859.50;;;8.01;60.52
11987;BME280;6053;51.382;6.768;2023-12-07T08:23:36;101851.25;;;8.12;60.01
11987;BME280;6053;51.382;6.768;2023-12-07T08:26:15;101851.97;;;7.91;60.33
11987;BME280;6053;51.382;6.768;2023-12-07T08:28:47;101860.69;;;8.07;60.50
11987;BME280;6053;51.382;6.768;2023-12-07T08:31:15;101852.09;;;8.19;60.09
11987;BME280;6053;51.382;6.768;2023-12-07T08:33:50;101857.16;;;8.14;59.96
11987;BME280;6053;51.382;6.768;2023-12-07T08:36:22;101860.69;;;8.14;60.36
11987;BME280;6053;51.382;6.768;2023-12-07T08:38:51;101863.81;;;8.06;59.98
11987;BME280;6053;51.382;6.768;2023-12-07T08:41:20;101873.81;;;7.53;62.44
11987;BME280;6053;51.382;6.768;2023-12-07T08:43:48;101865.91;;;7.45;62.52
11987;BME280;6053;51.382;6.768;2023-12-07T08:46:17;101866.63;;;7.35;62.79
11987;BME280;6053;51.382;6.768;2023-12-07T08:48:45;101863.53;;;7.43;62.66
11987;BME280;6053;51.382;6.768;2023-12-07T08:51:14;101864.66;;;6.38;66.05
11987;BME280;6053;51.382;6.768;2023-12-07T08:53:45;101864.88;;;7.06;64.17
11987;BME280;6053;51.382;6.768;2023-12-07T08:56:22;101868.75;;;7.01;64.24
11987;BME280;6053;51.382;6.768;2023-12-07T08:58:51;101868.22;;;7.36;63.01
11987;BME280;6053;51.382;6.768;2023-12-07T09:01:22;101860.38;;;6.84;64.09
11987;BME280;6053;51.382;6.768;2023-12-07T09:04:02;101862.25;;;6.30;65.21
11987;BME280;6053;51.382;6.768;2023-12-07T09:06:32;101865.22;;;6.54;64.46
11987;BME280;6053;51.382;6.768;2023-12-07T09:09:01;101858.81;;;6.83;64.62
11987;BME280;6053;51.382;6.768;2023-12-07T09:11:33;101861.41;;;6.26;66.34
11987;BME280;6053;51.382;6.768;2023-12-07T09:14:04;101862.25;;;6.30;67.11
11987;BME280;6053;51.382;6.768;2023-12-07T09:16:45;101861.81;;;7.18;64.03
11987;BME280;6053;51.382;6.768;2023-12-07T09:19:17;101854.25;;;7.72;62.01
11987;BME280;6053;51.382;6.768;2023-12-07T09:21:45;101849.03;;;6.06;66.62
11987;BME280;6053;51.382;6.768;2023-12-07T09:24:19;101851.59;;;6.65;65.71
11987;BME280;6053;51.382;6.768;2023-12-07T09:26:50;101854.13;;;7.48;62.97
11987;BME280;6053;51.382;6.768;2023-12-07T09:29:18;101864.13;;;7.16;63.51
11987;BME280;6053;51.382;6.768;2023-12-07T09:31:47;101859.94;;;6.79;63.57
11987;BME280;6053;51.382;6.768;2023-12-07T09:34:18;101860.56;;;7.08;64.42
11987;BME280;6053;51.382;6.768;2023-12-07T09:37:02;101854.75;;;6.27;65.42
11987;BME280;6053;51.382;6.768;2023-12-07T09:39:36;101853.81;;;6.95;62.54
11987;BME280;6053;51.382;6.768;2023-12-07T09:42:06;101847.03;;;7.40;63.43
11987;BME280;6053;51.382;6.768;2023-12-07T09:44:35;101843.28;;;7.82;61.75
11987;BME280;6053;51.382;6.768;2023-12-07T09:47:26;101840.13;;;7.73;61.64
11987;BME280;6053;51.382;6.768;2023-12-07T09:50:04;101843.41;;;8.14;60.63
11987;BME280;6053;51.382;6.768;2023-12-07T09:52:33;101830.91;;;8.79;58.40
11987;BME280;6053;51.382;6.768;2023-12-07T09:55:03;101830.94;;;6.81;61.46
11987;BME280;6053;51.382;6.768;2023-12-07T09:57:46;101833.78;;;7.62;62.39
11987;BME280;6053;51.382;6.768;2023-12-07T10:00:17;101838.06;;;6.92;63.96
11987;BME280;6053;51.382;6.768;2023-12-07T10:02:46;101832.47;;;6.79;63.51
11987;BME280;6053;51.382;6.768;2023-12-07T10:05:16;101824.94;;;6.69;62.58
11987;BME280;6053;51.382;6.768;2023-12-07T10:07:46;101822.94;;;6.62;65.31
11987;BME280;6053;51.382;6.768;2023-12-07T10:10:19;101827.63;;;7.12;63.33
11987;BME280;6053;51.382;6.768;2023-12-07T10:13:00;101829.59;;;7.11;62.23
11987;BME280;6053;51.382;6.768;2023-12-07T10:15:28;101825.00;;;6.29;64.15
11987;BME280;6053;51.382;6.768;2023-12-07T10:17:59;101813.47;;;6.13;66.59
11987;BME280;6053;51.382;6.768;2023-12-07T10:20:28;101811.97;;;5.83;66.71
11987;BME280;6053;51.382;6.768;2023-12-07T10:23:04;101803.56;;;6.02;68.69
11987;BME280;6053;51.382;6.768;2023-12-07T10:25:37;101804.28;;;5.95;69.08
11987;BME280;6053;51.382;6.768;2023-12-07T10:28:22;101806.75;;;6.07;68.43
11987;BME280;6053;51.382;6.768;2023-12-07T10:30:51;101800.28;;;6.25;67.38
11987;BME280;6053;51.382;6.768;2023-12-07T10:33:21;101787.97;;;5.43;67.77
11987;BME280;6053;51.382;6.768;2023-12-07T10:35:50;101789.31;;;5.27;69.88
11987;BME280;6053;51.382;6.768;2023-12-07T10:38:22;101786.13;;;6.23;66.30
11987;BME280;6053;51.382;6.768;2023-12-07T10:41:06;101790.72;;;5.43;68.75
11987;BME280;6053;51.382;6.768;2023-12-07T10:43:40;101775.25;;;4.73;70.83
11987;BME280;6053;51.382;6.768;2023-12-07T10:46:12;101764.47;;;4.84;71.35
11987;BME280;6053;51.382;6.768;2023-12-07T10:48:47;101764.00;;;4.78;70.12
11987;BME280;6053;51.382;6.768;2023-12-07T10:51:29;101751.66;;;4.91;70.28
11987;BME280;6053;51.382;6.768;2023-12-07T10:54:05;101757.22;;;4.98;69.09
11987;BME280;6053;51.382;6.768;2023-12-07T10:56:39;101758.25;;;5.45;70.36
11987;BME280;6053;51.382;6.768;2023-12-07T10:59:21;101753.38;;;5.03;70.98
11987;BME280;6053;51.382;6.768;2023-12-07T11:01:59;101748.00;;;5.10;69.65
11987;BME280;6053;51.382;6.768;2023-12-07T11:04:27;101744.59;;;5.16;71.09
11987;BME280;6053;51.382;6.768;2023-12-07T11:07:03;101733.78;;;5.96;66.48
11987;BME280;6053;51.382;6.768;2023-12-07T11:09:42;101730.28;;;5.00;68.71
11987;BME280;6053;51.382;6.768;2023-12-07T11:12:31;101724.41;;;5.64;68.41
11987;BME280;6053;51.382;6.768;2023-12-07T11:15:07;101722.56;;;5.75;69.07
11987;BME280;6053;51.382;6.768;2023-12-07T11:17:55;101710.22;;;5.22;67.50
11987;BME280;6053;51.382;6.768;2023-12-07T11:20:40;101709.13;;;5.59;68.54
11987;BME280;6053;51.382;6.768;2023-12-07T11:23:15;101707.88;;;4.91;69.01
11987;BME280;6053;51.382;6.768;2023-12-07T11:25:44;101700.06;;;5.92;66.73
11987;BME280;6053;51.382;6.768;2023-12-07T11:28:14;101698.19;;;4.97;67.54
11987;BME280;6053;51.382;6.768;2023-12-07T11:30:45;101694.25;;;5.64;69.62
11987;BME280;6053;51.382;6.768;2023-12-07T11:33:19;101692.19;;;5.50;66.76
11987;BME280;6053;51.382;6.768;2023-12-07T11:36:05;101686.69;;;5.87;67.70
11987;BME280;6053;51.382;6.768;2023-12-07T11:38:36;101677.47;;;6.59;65.04
11987;BME280;6053;51.382;6.768;2023-12-07T11:41:05;101672.16;;;4.81;68.02
11987;BME280;6053;51.382;6.768;2023-12-07T11:43:47;101680.78;;;5.81;69.08
11987;BME280;6053;51.382;6.768;2023-12-07T11:46:29;101676.09;;;4.83;68.38
11987;BME280;6053;51.382;6.768;2023-12-07T11:49:02;101665.31;;;4.39;69.29
11987;BME280;6053;51.382;6.768;2023-12-07T11:51:34;101664.56;;;5.69;69.38
11987;BME280;6053;51.382;6.768;2023-12-07T11:54:02;101660.78;;;6.98;64.67
11987;BME280;6053;51.382;6.768;2023-12-07T11:56:34;101655.47;;;5.98;64.56
11987;BME280;6053;51.382;6.768;2023-12-07T11:59:12;101652.84;;;5.69;69.81
11987;BME280;6053;51.382;6.768;2023-12-07T12:01:52;101641.34;;;5.20;66.87
11987;BME280;6053;51.382;6.768;2023-12-07T12:04:29;101647.38;;;4.70;69.00
11987;BME280;6053;51.382;6.768;2023-12-07T12:07:00;101650.34;;;4.88;68.69
11987;BME280;6053;51.382;6.768;2023-12-07T12:09:29;101659.53;;;4.73;69.14
11987;BME280;6053;51.382;6.768;2023-12-07T12:11:59;101655.84;;;5.21;66.42
11987;BME280;6053;51.382;6.768;2023-12-07T12:14:28;101649.34;;;4.70;68.38
11987;BME280;6053;51.382;6.768;2023-12-07T12:17:16;101645.63;;;5.94;67.85
11987;BME280;6053;51.382;6.768;2023-12-07T12:19:44;101648.03;;;5.99;67.69
11987;BME280;6053;51.382;6.768;2023-12-07T12:22:22;101641.56;;;4.72;69.88
11987;BME280;6053;51.382;6.768;2023-12-07T12:24:52;101647.06;;;5.41;69.69
11987;BME280;6053;51.382;6.768;2023-12-07T12:27:27;101646.31;;;5.08;70.30
11987;BME280;6053;51.382;6.768;2023-12-07T12:30:00;101638.69;;;6.03;68.49
11987;BME280;6053;51.382;6.768;2023-12-07T12:32:57;101630.66;;;4.75;67.84
11987;BME280;6053;51.382;6.768;2023-12-07T12:35:33;101627.03;;;4.39;68.91
11987;BME280;6053;51.382;6.768;2023-12-07T12:38:02;101621.88;;;4.92;67.18
11987;BME280;6053;51.382;6.768;2023-12-07T12:40:46;101609.47;;;4.69;67.46
11987;BME280;6053;51.382;6.768;2023-12-07T12:43:15;101614.38;;;4.86;68.07
11987;BME280;6053;51.382;6.768;2023-12-07T12:45:46;101609.34;;;5.24;68.02
11987;BME280;6053;51.382;6.768;2023-12-07T12:48:35;101599.09;;;6.04;64.47
11987;BME280;6053;51.382;6.768;2023-12-07T12:51:14;101595.28;;;5.29;67.63
11987;BME280;6053;51.382;6.768;2023-12-07T12:53:46;101591.72;;;5.22;67.08
11987;BME280;6053;51.382;6.768;2023-12-07T12:56:19;101584.34;;;5.72;68.12
11987;BME280;6053;51.382;6.768;2023-12-07T12:58:49;101571.75;;;6.14;64.92
11987;BME280;6053;51.382;6.768;2023-12-07T13:01:24;101575.91;;;6.55;66.36
11987;BME280;6053;51.382;6.768;2023-12-07T13:03:58;101584.50;;;6.50;64.47
11987;BME280;6053;51.382;6.768;2023-12-07T13:06:26;101575.66;;;6.10;65.10
11987;BME280;6053;51.382;6.768;2023-12-07T13:08:59;101582.28;;;6.06;66.29
11987;BME280;6053;51.382;6.768;2023-12-07T13:11:27;101582.31;;;5.62;64.40
11987;BME280;6053;51.382;6.768;2023-12-07T13:13:56;101575.13;;;5.91;67.56
11987;BME280;6053;51.382;6.768;2023-12-07T13:16:31;101570.22;;;5.70;66.90
11987;BME280;6053;51.382;6.768;2023-12-07T13:19:03;101575.09;;;5.87;66.59
11987;BME280;6053;51.382;6.768;2023-12-07T13:21:35;101566.13;;;5.07;66.68
11987;BME280;6053;51.382;6.768;2023-12-07T13:24:05;101559.22;;;6.13;66.94
11987;BME280;6053;51.382;6.768;2023-12-07T13:26:36;101563.50;;;6.11;66.70
11987;BME280;6053;51.382;6.768;2023-12-07T13:29:07;101563.69;;;6.42;65.08
11987;BME280;6053;51.382;6.768;2023-12-07T13:31:47;101560.66;;;6.68;64.22
11987;BME280;6053;51.382;6.768;2023-12-07T13:34:21;101562.78;;;5.71;67.30
11987;BME280;6053;51.382;6.768;2023-12-07T13:36:50;101546.16;;;5.46;65.22